Terminal Aerodrome Forecast
Issued by NWS Sterling, VA

Home | Current Version | Previous Version | Text Only | Print | Product List | Glossary On
Versions: 1 2 3 4 5 6 7 8 9 10 11 12 13 14 15
000
FTUS41 KLWX 251738
TAFCHO
TAF
KCHO 251738Z 2518/2618 22005KT P6SM SCT050
     FM252000 22007KT P6SM VCTS SCT060CB
     FM252300 21006KT P6SM BKN060
     FM260300 23004KT P6SM VCTS BKN060CB
     FM260600 VRB03KT P6SM BKN060=

USA.gov is the U.S. government's official web portal to all federal, state and local government web resources and services.